createdAt,value
2019-05-23T00:01:02.078Z,12.70
2019-05-23T00:03:37.093Z,12.60
2019-05-23T00:06:10.415Z,12.60
2019-05-23T00:08:40.933Z,12.50
2019-05-23T00:11:31.992Z,12.50
2019-05-23T00:14:07.027Z,12.50
2019-05-23T00:16:36.788Z,12.50
2019-05-23T00:19:06.707Z,12.40
2019-05-23T00:21:37.185Z,12.40
2019-05-23T00:24:06.195Z,12.40
2019-05-23T00:26:35.878Z,12.40
2019-05-23T00:29:10.687Z,12.40
2019-05-23T00:31:41.284Z,12.30
2019-05-23T00:34:12.011Z,12.30
2019-05-23T00:36:41.956Z,12.30
2019-05-23T00:39:11.882Z,12.30
2019-05-23T00:41:41.116Z,12.30
2019-05-23T00:44:10.646Z,12.30
2019-05-23T00:46:40.105Z,12.20
2019-05-23T00:49:09.793Z,12.30
2019-05-23T00:51:40.136Z,12.30
2019-05-23T00:54:09.279Z,12.30
2019-05-23T00:56:39.443Z,12.30
2019-05-23T00:59:18.665Z,12.30
2019-05-23T01:01:41.755Z,12.30
2019-05-23T01:04:10.906Z,12.30
2019-05-23T01:06:40.234Z,12.30
2019-05-23T01:09:10.786Z,12.20
2019-05-23T01:11:39.819Z,12.20
2019-05-23T01:14:10.341Z,12.20
2019-05-23T01:16:40.531Z,12.10
2019-05-23T01:19:10.424Z,12.20
2019-05-23T01:22:00.923Z,12.20
2019-05-23T01:24:42.039Z,12.10
2019-05-23T01:27:13.051Z,12.10
2019-05-23T01:29:50.213Z,12.10
2019-05-23T01:32:42.823Z,12.10
2019-05-23T01:35:13.625Z,12.20
2019-05-23T01:37:44.037Z,12.10
2019-05-23T01:40:13.603Z,12.10
2019-05-23T01:42:43.912Z,12.00
2019-05-23T01:45:14.228Z,12.00
2019-05-23T01:47:43.888Z,12.00
2019-05-23T01:50:14.141Z,12.00
2019-05-23T01:52:43.381Z,12.00
2019-05-23T01:55:12.908Z,12.00
2019-05-23T01:57:42.729Z,11.90
2019-05-23T02:00:13.888Z,11.90
2019-05-23T02:02:43.388Z,11.90
2019-05-23T02:05:14.356Z,11.90
2019-05-23T02:07:43.887Z,11.90
2019-05-23T02:10:13.183Z,11.90
2019-05-23T02:12:43.873Z,11.90
2019-05-23T02:15:15.761Z,11.80
2019-05-23T02:17:46.680Z,11.80
2019-05-23T02:20:19.013Z,11.80
2019-05-23T02:22:48.379Z,11.80
2019-05-23T02:25:21.008Z,11.80
2019-05-23T02:27:51.000Z,11.80
2019-05-23T02:30:33.933Z,11.70
2019-05-23T02:32:53.610Z,11.70
2019-05-23T02:35:22.644Z,11.70
2019-05-23T02:38:09.706Z,11.70
2019-05-23T02:40:52.671Z,11.70
2019-05-23T02:43:23.406Z,11.70
2019-05-23T02:45:55.707Z,11.60
2019-05-23T02:48:28.588Z,11.60
2019-05-23T02:51:01.000Z,11.60
2019-05-23T02:53:35.548Z,11.50
2019-05-23T02:56:08.073Z,11.50
2019-05-23T02:58:52.016Z,11.50
2019-05-23T03:01:44.008Z,11.40
2019-05-23T03:04:17.797Z,11.50
2019-05-23T03:06:48.425Z,11.40
2019-05-23T03:09:19.620Z,11.40
2019-05-23T03:11:49.898Z,11.40
2019-05-23T03:14:19.733Z,11.40
2019-05-23T03:16:52.326Z,11.40
2019-05-23T03:19:37.006Z,11.30
2019-05-23T03:22:27.679Z,11.30
2019-05-23T03:24:59.693Z,11.20
2019-05-23T03:27:30.405Z,11.20
2019-05-23T03:30:00.621Z,11.20
2019-05-23T03:32:43.859Z,11.20
2019-05-23T03:35:33.284Z,11.20
2019-05-23T03:38:02.824Z,11.20
2019-05-23T03:40:33.202Z,11.20
2019-05-23T03:43:02.224Z,11.20
2019-05-23T03:45:33.249Z,11.20
2019-05-23T03:48:02.987Z,11.10
2019-05-23T03:50:32.702Z,11.10
2019-05-23T03:53:02.277Z,11.00
2019-05-23T03:55:32.783Z,11.00
2019-05-23T03:58:02.861Z,11.00
2019-05-23T04:00:36.991Z,10.90
2019-05-23T04:03:07.876Z,10.90
2019-05-23T04:05:38.644Z,10.80
2019-05-23T04:08:09.488Z,10.70
2019-05-23T04:10:39.184Z,10.60
2019-05-23T04:13:08.725Z,10.60
2019-05-23T04:15:37.839Z,10.50
2019-05-23T04:18:07.659Z,10.40
2019-05-23T04:20:37.551Z,10.30
2019-05-23T04:23:07.595Z,10.30
2019-05-23T04:25:36.665Z,10.10
2019-05-23T04:28:06.481Z,10.10
2019-05-23T04:30:35.476Z,10.00
2019-05-23T04:33:04.982Z,9.90
2019-05-23T04:35:34.528Z,9.80
2019-05-23T04:38:04.552Z,9.80
2019-05-23T04:40:34.288Z,9.70
2019-05-23T04:43:03.418Z,9.70
2019-05-23T04:45:33.642Z,9.70
2019-05-23T04:48:02.908Z,9.70
2019-05-23T04:50:33.841Z,9.70
2019-05-23T04:53:02.862Z,9.70
2019-05-23T04:55:32.719Z,9.60
2019-05-23T04:58:04.621Z,9.60
2019-05-23T05:00:33.444Z,9.60
2019-05-23T05:03:04.218Z,9.70
2019-05-23T05:05:33.438Z,9.70
2019-05-23T05:08:02.750Z,9.80
2019-05-23T05:10:32.775Z,9.90
2019-05-23T05:13:02.663Z,9.90
2019-05-23T05:15:31.892Z,9.80
2019-05-23T05:18:03.205Z,9.80
2019-05-23T05:20:32.439Z,9.80
2019-05-23T05:23:01.864Z,9.80
2019-05-23T05:25:31.405Z,9.90
2019-05-23T05:28:00.616Z,10.00
2019-05-23T05:30:29.696Z,10.20
2019-05-23T05:32:59.075Z,10.30
2019-05-23T05:35:29.557Z,10.50
2019-05-23T05:37:59.200Z,10.60
2019-05-23T05:40:28.351Z,10.80
2019-05-23T05:42:58.260Z,10.90
2019-05-23T05:45:27.296Z,11.10
2019-05-23T05:47:56.957Z,11.10
2019-05-23T05:50:26.616Z,11.20
2019-05-23T05:52:56.415Z,11.20
2019-05-23T05:55:26.261Z,11.30
2019-05-23T05:57:55.669Z,11.40
2019-05-23T06:00:42.577Z,11.50
2019-05-23T06:03:11.954Z,11.50
2019-05-23T06:05:59.052Z,11.60
2019-05-23T06:08:30.144Z,11.70
2019-05-23T06:10:59.355Z,11.70
2019-05-23T06:13:29.003Z,11.80
2019-05-23T06:15:58.314Z,11.90
2019-05-23T06:18:28.122Z,11.90
2019-05-23T06:20:57.229Z,12.00
2019-05-23T06:23:26.288Z,12.00
2019-05-23T06:25:55.351Z,12.10
2019-05-23T06:28:25.024Z,12.10
2019-05-23T06:30:54.698Z,12.10
2019-05-23T06:33:24.647Z,12.30
2019-05-23T06:35:54.430Z,12.40
2019-05-23T06:38:23.968Z,12.40
2019-05-23T06:40:54.598Z,12.60
2019-05-23T06:43:23.881Z,12.70
2019-05-23T06:45:53.295Z,12.80
2019-05-23T06:48:23.419Z,13.10
2019-05-23T06:50:52.487Z,13.40
2019-05-23T06:53:21.411Z,13.50
2019-05-23T06:55:50.506Z,13.70
2019-05-23T06:58:19.999Z,13.80
2019-05-23T07:00:49.763Z,13.90
2019-05-23T07:03:19.092Z,14.10
2019-05-23T07:05:48.726Z,14.60
2019-05-23T07:08:18.056Z,14.90
2019-05-23T07:10:47.167Z,15.10
2019-05-23T07:13:17.943Z,15.30
2019-05-23T07:15:47.577Z,15.30
2019-05-23T07:18:16.739Z,15.60
2019-05-23T07:20:45.925Z,15.90
2019-05-23T07:23:15.296Z,16.00
2019-05-23T07:25:44.467Z,16.20
2019-05-23T07:28:13.475Z,16.00
2019-05-23T07:30:42.804Z,15.80
2019-05-23T07:33:13.024Z,16.10
2019-05-23T07:35:42.075Z,16.90
2019-05-23T07:38:11.573Z,17.70
2019-05-23T07:40:41.426Z,18.30
2019-05-23T07:43:10.460Z,19.10
2019-05-23T07:45:45.306Z,21.20
2019-05-23T07:48:14.359Z,22.20
2019-05-23T07:50:44.129Z,23.00
2019-05-23T07:53:17.567Z,20.90
2019-05-23T07:55:47.327Z,20.10
2019-05-23T07:58:17.519Z,22.20
2019-05-23T08:00:52.317Z,24.50
2019-05-23T08:03:22.559Z,24.60
2019-05-23T08:05:52.193Z,23.90
2019-05-23T08:08:21.400Z,25.70
2019-05-23T08:10:50.583Z,27.20
2019-05-23T08:13:19.716Z,27.50
2019-05-23T08:15:48.803Z,26.80
2019-05-23T08:18:18.328Z,25.30
2019-05-23T08:20:47.828Z,23.10
2019-05-23T08:23:16.870Z,24.60
2019-05-23T08:25:45.843Z,25.10
2019-05-23T08:28:15.478Z,26.10
2019-05-23T08:30:44.807Z,28.30
2019-05-23T08:33:15.088Z,28.80
2019-05-23T08:35:44.649Z,25.40
2019-05-23T08:38:14.041Z,23.80
2019-05-23T08:40:43.285Z,23.30
2019-05-23T08:43:12.807Z,24.80
2019-05-23T08:45:42.534Z,25.10
2019-05-23T08:48:12.128Z,27.10
2019-05-23T08:50:41.752Z,28.80
2019-05-23T08:53:10.747Z,30.80
2019-05-23T08:55:40.939Z,30.40
2019-05-23T08:58:12.300Z,29.60
2019-05-23T09:00:42.916Z,29.50
2019-05-23T09:03:12.788Z,30.40
2019-05-23T09:05:42.507Z,31.20
2019-05-23T09:08:16.460Z,32.10
2019-05-23T09:10:43.792Z,31.40
2019-05-23T09:13:13.730Z,31.30
2019-05-23T09:15:43.865Z,31.30
2019-05-23T09:18:14.443Z,30.90
2019-05-23T09:20:43.782Z,31.90
2019-05-23T09:23:13.332Z,32.50
2019-05-23T09:25:42.547Z,32.30
2019-05-23T09:28:12.932Z,32.10
2019-05-23T09:30:42.245Z,32.00
2019-05-23T09:33:11.405Z,31.70
2019-05-23T09:35:40.657Z,31.80
2019-05-23T09:38:09.773Z,30.80
2019-05-23T09:40:38.968Z,29.90
2019-05-23T09:43:08.401Z,29.10
2019-05-23T09:45:37.610Z,27.20
2019-05-23T09:48:07.402Z,27.20
2019-05-23T09:50:37.183Z,27.70
2019-05-23T09:53:06.476Z,28.80
2019-05-23T09:55:35.851Z,28.00
2019-05-23T09:58:05.312Z,28.30
2019-05-23T10:00:35.665Z,29.60
2019-05-23T10:03:05.812Z,29.90
2019-05-23T10:05:42.798Z,28.10
2019-05-23T10:08:06.423Z,27.70
2019-05-23T10:10:36.028Z,27.80
2019-05-23T10:13:05.480Z,26.80
2019-05-23T10:15:50.183Z,25.10
2019-05-23T10:18:20.548Z,23.70
2019-05-23T10:20:49.963Z,22.50
2019-05-23T10:23:19.369Z,22.20
2019-05-23T10:25:48.754Z,22.00
2019-05-23T10:28:18.832Z,21.90
2019-05-23T10:30:48.174Z,22.00
2019-05-23T10:33:17.408Z,21.90
2019-05-23T10:35:59.987Z,21.90
2019-05-23T10:38:17.603Z,21.80
2019-05-23T10:40:46.856Z,22.00
2019-05-23T10:43:16.293Z,22.00
2019-05-23T10:45:45.688Z,22.00
2019-05-23T10:48:15.679Z,22.00
2019-05-23T10:50:45.512Z,21.30
2019-05-23T10:53:16.263Z,20.90
2019-05-23T10:55:45.420Z,20.60
2019-05-23T10:58:15.673Z,20.20
2019-05-23T11:00:47.074Z,20.60
2019-05-23T11:03:16.549Z,20.80
2019-05-23T11:05:45.727Z,21.20
2019-05-23T11:08:15.627Z,21.40
2019-05-23T11:10:44.640Z,21.80
2019-05-23T11:13:13.888Z,21.60
2019-05-23T11:15:43.743Z,21.00
2019-05-23T11:18:13.289Z,20.70
2019-05-23T11:20:43.116Z,20.90
2019-05-23T11:23:14.760Z,21.00
2019-05-23T11:25:43.787Z,21.00
2019-05-23T11:28:13.762Z,21.40
2019-05-23T11:30:56.046Z,21.60
2019-05-23T11:33:25.243Z,21.80
2019-05-23T11:35:54.491Z,21.60
2019-05-23T11:38:24.369Z,21.40
2019-05-23T11:40:53.395Z,21.10
2019-05-23T11:43:22.712Z,20.90
2019-05-23T11:45:58.150Z,20.80
2019-05-23T11:48:27.437Z,20.50
2019-05-23T11:50:56.579Z,20.20
2019-05-23T11:53:25.771Z,20.30
2019-05-23T11:55:54.856Z,20.60
2019-05-23T11:58:24.417Z,20.60
2019-05-23T12:01:20.585Z,21.00
2019-05-23T12:03:44.503Z,21.30
2019-05-23T12:06:13.692Z,21.30
2019-05-23T12:08:43.786Z,21.50
2019-05-23T12:11:13.844Z,21.80
2019-05-23T12:13:43.194Z,21.80
2019-05-23T12:16:12.579Z,22.00
2019-05-23T12:18:41.837Z,21.90
2019-05-23T12:21:11.016Z,21.90
2019-05-23T12:23:40.146Z,22.00
2019-05-23T12:26:09.504Z,22.00
2019-05-23T12:28:38.927Z,22.20
2019-05-23T12:31:08.543Z,22.30
2019-05-23T12:33:37.838Z,22.40
2019-05-23T12:36:07.151Z,22.50
2019-05-23T12:38:36.124Z,22.30
2019-05-23T12:41:05.995Z,21.50
2019-05-23T12:43:35.132Z,21.30
2019-05-23T12:46:04.271Z,21.30
2019-05-23T12:48:43.938Z,21.20
2019-05-23T12:51:13.711Z,21.30
2019-05-23T12:53:42.876Z,21.50
2019-05-23T12:56:12.533Z,21.40
2019-05-23T12:58:43.123Z,21.50
2019-05-23T13:01:13.714Z,21.60
2019-05-23T13:03:42.774Z,21.50
2019-05-23T13:06:12.204Z,21.40
2019-05-23T13:08:43.944Z,21.00
2019-05-23T13:11:13.081Z,20.70
2019-05-23T13:13:42.040Z,20.50
2019-05-23T13:16:11.124Z,20.60
2019-05-23T13:18:40.500Z,20.60
2019-05-23T13:21:09.737Z,20.40
2019-05-23T13:23:39.593Z,20.10
2019-05-23T13:26:08.797Z,20.20
2019-05-23T13:28:38.111Z,20.20
2019-05-23T13:31:07.091Z,20.50
2019-05-23T13:33:36.143Z,20.80
2019-05-23T13:36:05.865Z,21.20
2019-05-23T13:38:35.575Z,21.30
2019-05-23T13:41:04.835Z,21.40
2019-05-23T13:43:34.565Z,21.30
2019-05-23T13:46:03.765Z,21.40
2019-05-23T13:48:33.353Z,21.20
2019-05-23T13:51:02.564Z,20.90
2019-05-23T13:53:32.228Z,20.70
2019-05-23T13:56:01.383Z,20.90
2019-05-23T13:58:30.927Z,21.00
2019-05-23T14:01:00.377Z,20.90
2019-05-23T14:03:30.113Z,20.80
2019-05-23T14:05:59.984Z,20.60
2019-05-23T14:08:29.935Z,20.20
2019-05-23T14:10:59.662Z,20.00
2019-05-23T14:13:28.974Z,19.90
2019-05-23T14:15:58.793Z,20.00
2019-05-23T14:18:29.276Z,20.10
2019-05-23T14:20:58.875Z,20.30
2019-05-23T14:23:32.892Z,20.20
2019-05-23T14:26:02.035Z,20.30
2019-05-23T14:28:31.920Z,20.40
2019-05-23T14:31:15.105Z,20.50
2019-05-23T14:34:12.562Z,20.70
2019-05-23T14:37:03.586Z,20.90
2019-05-23T14:39:37.379Z,21.20
2019-05-23T14:42:18.135Z,21.30
2019-05-23T14:44:47.253Z,21.30
2019-05-23T14:47:38.696Z,21.30
2019-05-23T14:50:25.339Z,21.50
2019-05-23T14:52:55.020Z,21.60
2019-05-23T14:55:24.571Z,21.60
2019-05-23T14:57:53.878Z,21.60
2019-05-23T15:00:25.207Z,21.40
2019-05-23T15:02:54.246Z,21.40
2019-05-23T15:05:24.088Z,21.30
2019-05-23T15:07:53.137Z,21.30
2019-05-23T15:10:22.677Z,21.10
2019-05-23T15:12:51.749Z,20.90
2019-05-23T15:15:21.044Z,21.00
2019-05-23T15:17:50.403Z,21.10
2019-05-23T15:20:19.692Z,21.20
2019-05-23T15:22:49.067Z,21.00
2019-05-23T15:25:19.402Z,21.00
2019-05-23T15:27:48.835Z,21.10
2019-05-23T15:30:19.272Z,21.20
2019-05-23T15:32:48.367Z,21.20
2019-05-23T15:35:17.632Z,21.20
2019-05-23T15:37:47.103Z,21.10
2019-05-23T15:40:16.993Z,21.10
2019-05-23T15:42:46.240Z,21.10
2019-05-23T15:45:15.965Z,21.00
2019-05-23T15:47:45.128Z,21.00
2019-05-23T15:50:16.044Z,21.00
2019-05-23T15:52:50.823Z,21.10
2019-05-23T15:55:45.147Z,21.10
2019-05-23T15:58:33.355Z,21.10
2019-05-23T16:01:07.644Z,21.00
2019-05-23T16:03:48.389Z,20.90
2019-05-23T16:06:20.770Z,20.80
2019-05-23T16:08:50.390Z,20.80
2019-05-23T16:11:19.584Z,20.60
2019-05-23T16:13:48.551Z,20.60
2019-05-23T16:16:17.664Z,20.60
2019-05-23T16:18:47.476Z,20.60
2019-05-23T16:21:17.151Z,20.50
2019-05-23T16:23:46.771Z,20.50
2019-05-23T16:26:16.039Z,20.50
2019-05-23T16:28:45.403Z,20.50
2019-05-23T16:31:14.733Z,20.40
2019-05-23T16:33:43.778Z,20.40
2019-05-23T16:36:12.803Z,20.40
2019-05-23T16:38:41.956Z,20.20
2019-05-23T16:41:11.771Z,20.20
2019-05-23T16:43:41.019Z,20.10
2019-05-23T16:46:10.143Z,20.00
2019-05-23T16:48:39.367Z,19.90
2019-05-23T16:51:08.419Z,19.80
2019-05-23T16:53:38.062Z,19.80
2019-05-23T16:56:20.924Z,19.80
2019-05-23T16:59:03.272Z,19.80
2019-05-23T17:01:54.801Z,19.80
2019-05-23T17:04:21.374Z,19.80
2019-05-23T17:06:59.200Z,19.80
2019-05-23T17:09:37.425Z,19.70
2019-05-23T17:12:23.552Z,19.60
2019-05-23T17:14:57.209Z,19.40
2019-05-23T17:17:49.425Z,19.20
2019-05-23T17:20:20.107Z,19.00
2019-05-23T17:22:56.707Z,18.90
2019-05-23T17:25:54.022Z,18.80
2019-05-23T17:28:30.688Z,18.70
2019-05-23T17:31:02.675Z,18.70
2019-05-23T17:33:32.276Z,18.50
2019-05-23T17:36:01.504Z,18.40
2019-05-23T17:38:30.448Z,18.20
2019-05-23T17:40:59.820Z,18.10
2019-05-23T17:43:29.156Z,18.00
2019-05-23T17:45:58.709Z,17.90
2019-05-23T17:48:27.981Z,17.70
2019-05-23T17:50:56.959Z,17.70
2019-05-23T17:53:26.507Z,17.60
2019-05-23T17:55:55.775Z,17.50
2019-05-23T17:58:25.393Z,17.40
2019-05-23T18:00:54.626Z,17.30
2019-05-23T18:03:23.683Z,17.20
2019-05-23T18:05:53.561Z,17.10
2019-05-23T18:08:23.406Z,17.10
2019-05-23T18:10:52.923Z,16.90
2019-05-23T18:13:23.162Z,16.90
2019-05-23T18:15:52.466Z,16.80
2019-05-23T18:18:21.836Z,16.70
2019-05-23T18:20:51.495Z,16.60
2019-05-23T18:23:20.763Z,16.40
2019-05-23T18:25:49.903Z,16.20
2019-05-23T18:28:20.136Z,16.10
2019-05-23T18:30:56.003Z,16.00
2019-05-23T18:33:26.990Z,15.90
2019-05-23T18:35:56.324Z,15.80
2019-05-23T18:38:25.546Z,15.70
2019-05-23T18:41:03.169Z,15.60
2019-05-23T18:43:25.946Z,15.50
2019-05-23T18:45:59.094Z,15.40
2019-05-23T18:48:28.528Z,15.30
2019-05-23T18:50:57.851Z,15.10
2019-05-23T18:53:26.861Z,15.00
2019-05-23T18:55:55.963Z,15.00
2019-05-23T18:58:25.153Z,14.90
2019-05-23T19:01:12.216Z,14.90
2019-05-23T19:03:41.779Z,14.80
2019-05-23T19:06:10.861Z,14.70
2019-05-23T19:08:40.774Z,14.60
2019-05-23T19:11:20.016Z,14.50
2019-05-23T19:13:40.620Z,14.40
2019-05-23T19:16:09.726Z,14.30
2019-05-23T19:18:38.771Z,14.20
2019-05-23T19:21:08.298Z,14.10
2019-05-23T19:23:39.651Z,14.00
2019-05-23T19:26:09.450Z,13.90
2019-05-23T19:28:39.421Z,13.90
2019-05-23T19:31:09.302Z,13.80
2019-05-23T19:33:39.635Z,13.80
2019-05-23T19:36:10.727Z,13.70
2019-05-23T19:38:40.207Z,13.60
2019-05-23T19:41:10.877Z,13.60
2019-05-23T19:43:41.713Z,13.60
2019-05-23T19:46:10.900Z,13.50
2019-05-23T19:48:41.181Z,13.50
2019-05-23T19:51:10.803Z,13.40
2019-05-23T19:53:41.064Z,13.40
2019-05-23T19:56:10.674Z,13.30
2019-05-23T19:58:40.268Z,13.30
2019-05-23T20:01:10.428Z,13.20
2019-05-23T20:03:39.575Z,13.20
2019-05-23T20:06:10.732Z,13.10
2019-05-23T20:08:40.331Z,13.10
2019-05-23T20:11:09.374Z,13.00
2019-05-23T20:13:39.873Z,13.00
2019-05-23T20:16:09.008Z,12.90
2019-05-23T20:18:38.411Z,12.80
2019-05-23T20:21:07.699Z,12.80
2019-05-23T20:23:36.932Z,12.70
2019-05-23T20:26:08.286Z,12.70
2019-05-23T20:28:40.024Z,12.60
2019-05-23T20:31:09.110Z,12.50
2019-05-23T20:33:38.224Z,12.50
2019-05-23T20:36:12.470Z,12.40
2019-05-23T20:38:40.928Z,12.30
2019-05-23T20:41:10.771Z,12.30
2019-05-23T20:43:39.799Z,12.20
2019-05-23T20:46:09.033Z,12.10
2019-05-23T20:48:38.475Z,12.10
2019-05-23T20:51:07.595Z,12.00
2019-05-23T20:53:36.771Z,12.00
2019-05-23T20:56:06.892Z,11.90
2019-05-23T20:58:36.376Z,11.90
2019-05-23T21:01:25.902Z,11.80
2019-05-23T21:03:56.242Z,11.80
2019-05-23T21:06:25.357Z,11.60
2019-05-23T21:08:54.517Z,11.60
2019-05-23T21:11:23.781Z,11.60
2019-05-23T21:13:52.864Z,11.50
2019-05-23T21:16:22.003Z,11.40
2019-05-23T21:18:51.197Z,11.40
2019-05-23T21:21:20.208Z,11.30
2019-05-23T21:23:49.569Z,11.30
2019-05-23T21:26:18.836Z,11.30
2019-05-23T21:28:47.969Z,11.20
2019-05-23T21:31:24.900Z,11.20
2019-05-23T21:33:54.012Z,11.10
2019-05-23T21:36:23.088Z,11.10
2019-05-23T21:38:52.147Z,11.00
2019-05-23T21:41:21.354Z,11.00
2019-05-23T21:43:52.172Z,11.00
2019-05-23T21:46:21.324Z,10.90
2019-05-23T21:48:50.741Z,10.90
2019-05-23T21:51:19.799Z,10.80
2019-05-23T21:53:49.020Z,10.80
2019-05-23T21:56:18.387Z,10.70
2019-05-23T21:58:47.375Z,10.60
2019-05-23T22:01:38.576Z,10.60
2019-05-23T22:04:38.999Z,10.60
2019-05-23T22:07:09.168Z,10.50
2019-05-23T22:09:38.436Z,10.40
2019-05-23T22:12:11.581Z,10.40
2019-05-23T22:14:40.684Z,10.30
2019-05-23T22:17:09.671Z,10.30
2019-05-23T22:19:38.707Z,10.30
2019-05-23T22:22:08.336Z,10.20
2019-05-23T22:24:37.476Z,10.20
2019-05-23T22:27:09.334Z,10.10
2019-05-23T22:29:38.439Z,10.10
2019-05-23T22:32:09.191Z,10.10
2019-05-23T22:34:52.531Z,10.10
2019-05-23T22:37:25.725Z,10.00
2019-05-23T22:39:54.815Z,10.00
2019-05-23T22:42:25.138Z,10.00
2019-05-23T22:44:54.151Z,10.00
2019-05-23T22:47:24.281Z,9.90
2019-05-23T22:49:53.300Z,9.90
2019-05-23T22:52:22.307Z,9.90
2019-05-23T22:54:51.375Z,9.80
2019-05-23T22:57:20.548Z,9.80
2019-05-23T22:59:49.615Z,9.80
2019-05-23T23:02:19.160Z,9.80
2019-05-23T23:04:48.499Z,9.80
2019-05-23T23:07:18.360Z,9.90
2019-05-23T23:09:47.483Z,9.90
2019-05-23T23:12:16.607Z,9.80
2019-05-23T23:14:45.555Z,9.80
2019-05-23T23:17:14.974Z,9.80
2019-05-23T23:19:43.994Z,9.70
2019-05-23T23:22:13.584Z,9.70
2019-05-23T23:24:43.151Z,9.70
2019-05-23T23:27:12.291Z,9.60
2019-05-23T23:29:41.226Z,9.60
2019-05-23T23:32:11.060Z,9.60
2019-05-23T23:34:40.401Z,9.50
2019-05-23T23:37:09.715Z,9.40
2019-05-23T23:39:38.692Z,9.40
2019-05-23T23:42:08.551Z,9.30
2019-05-23T23:44:36.747Z,9.30
2019-05-23T23:47:24.505Z,9.30
2019-05-23T23:50:11.275Z,9.20
2019-05-23T23:52:58.264Z,9.30
2019-05-23T23:55:45.132Z,9.30
2019-05-23T23:58:13.663Z,9.30
